Observation data for Roaring Springs on 11/07/2019      Previous  Date       Current Mesonet Observations  Soil Data  Daily Summary Page  Observations in Plain Language
KRRS 070600Z 25006KT 14/14 A3016 RMK A01 T01440137  RH  100%=      5-min Rain = 0.01
KRRS 070605Z 25006KT 14/14 A3016 RMK A01 T01440138  RH  100%=      5-min Rain = 0
KRRS 070610Z 25007KT 14/14 A3016 RMK A01 T01440137  RH  100%=      5-min Rain = 0
KRRS 070615Z 25008KT 14/14 A3016 RMK A01 T01440138  RH  100%=      5-min Rain = 0
KRRS 070620Z 25007KT 14/14 A3016 RMK A01 T01440137  RH  100%=      5-min Rain = 0
KRRS 070625Z 25005KT 14/14 A3016 RMK A01 T01440137  RH  100%=      5-min Rain = 0.01
KRRS 070630Z 25004KT 14/14 A3015 RMK A01 T01440137  RH  100%=      5-min Rain = 0
KRRS 070635Z 26004KT 14/14 A3016 RMK A01 T01430137  RH  100%=      5-min Rain = 0
KRRS 070640Z 27006KT 14/14 A3017 RMK A01 T01430137  RH  100%=      5-min Rain = 0.01
KRRS 070645Z 32011G24KT 14/14 A3017 RMK A01 T01420136  RH  100%=      5-min Rain = 0
KRRS 070650Z 35021G27KT 11/10 A3019 RMK A01 T01080097  RH  096%=      5-min Rain = 0
KRRS 070655Z 36022G29KT 09/08 A302 RMK A01 T00900084  RH  098%=      5-min Rain = 0.01
KRRS 070700Z 36020G25KT 08/08 A3019 RMK A01 T00840078  RH  098%=      5-min Rain = 0
KRRS 070705Z 36020G29KT 08/07 A3019 RMK A01 T00790073  RH  098%=      5-min Rain = 0.01
KRRS 070710Z 01018G24KT 08/07 A3019 RMK A01 T00770071  RH  099%=      5-min Rain = 0
KRRS 070715Z 00018G24KT 07/07 A3019 RMK A01 T00730066  RH  098%=      5-min Rain = 0
KRRS 070720Z 01017G25KT 07/06 A3019 RMK A01 T00690064  RH  099%=      5-min Rain = 0
KRRS 070725Z 00020G27KT 07/06 A3019 RMK A01 T00660059  RH  098%=      5-min Rain = 0
KRRS 070730Z 01019G26KT 06/06 A302 RMK A01 T00620055  RH  097%=      5-min Rain = 0
KRRS 070735Z 00018G24KT 06/05 A3022 RMK A01 T00590052  RH  097%=      5-min Rain = 0
KRRS 070740Z 36019G26KT 06/05 A3023 RMK A01 T00560048  RH  097%=      5-min Rain = 0
KRRS 070745Z 36018G25KT 05/05 A3023 RMK A01 T00530045  RH  097%=      5-min Rain = 0
KRRS 070750Z 00020G28KT 05/04 A3022 RMK A01 T00500044  RH  097%=      5-min Rain = 0
KRRS 070755Z 01018G26KT 05/04 A3022 RMK A01 T00490043  RH  098%=      5-min Rain = 0
KRRS 070800Z 00023G34KT 05/04 A3022 RMK A01 T00470041  RH  098%=      5-min Rain = 0
KRRS 070805Z 01021G32KT 05/04 A3022 RMK A01 T00450039  RH  098%=      5-min Rain = 0
KRRS 070810Z 01021G31KT 04/04 A3022 RMK A01 T00430039  RH  099%=      5-min Rain = 0
KRRS 070815Z 01023G31KT 04/04 A3022 RMK A01 T00420038  RH  100%=      5-min Rain = 0
KRRS 070820Z 00022G31KT 04/04 A3023 RMK A01 T00410038  RH  100%=      5-min Rain = 0
KRRS 070825Z 00022G31KT 04/04 A3023 RMK A01 T00390037  RH  100%=      5-min Rain = 0
KRRS 070830Z 00021G29KT 04/04 A3024 RMK A01 T00390036  RH  100%=      5-min Rain = 0
KRRS 070835Z 00020G26KT 04/04 A3024 RMK A01 T00380035  RH  100%=      5-min Rain = 0
KRRS 070840Z 00020G25KT 04/03 A3025 RMK A01 T00370034  RH  100%=      5-min Rain = 0
KRRS 070845Z 36022G32KT 04/03 A3025 RMK A01 T00350033  RH  100%=      5-min Rain = 0
KRRS 070850Z 36021G30KT 03/03 A3025 RMK A01 T00330031  RH  100%=      5-min Rain = 0
KRRS 070855Z 00020G29KT 03/03 A3026 RMK A01 T00330030  RH  100%=      5-min Rain = 0
KRRS 070900Z 36022G31KT 03/03 A3026 RMK A01 T00320029  RH  100%=      5-min Rain = 0
KRRS 070905Z 36022G32KT 03/03 A3026 RMK A01 T00310029  RH  100%=      5-min Rain = 0
KRRS 070910Z 36022G31KT 03/03 A3026 RMK A01 T00310028  RH  100%=      5-min Rain = 0
KRRS 070915Z 00019G30KT 03/03 A3026 RMK A01 T00300028  RH  100%=      5-min Rain = 0
KRRS 070920Z 36020G29KT 03/03 A3026 RMK A01 T00290026  RH  100%=      5-min Rain = 0
KRRS 070925Z 36018G29KT 03/03 A3026 RMK A01 T00280026  RH  100%=      5-min Rain = 0
KRRS 070930Z 36020G28KT 03/03 A3026 RMK A01 T00270025  RH  100%=      5-min Rain = 0
KRRS 070935Z 00023G32KT 03/02 A3026 RMK A01 T00260024  RH  100%=      5-min Rain = 0
KRRS 070940Z 36024G33KT 03/02 A3026 RMK A01 T00250023  RH  100%=      5-min Rain = 0.01
KRRS 070945Z 36022G31KT 03/02 A3026 RMK A01 T00250023  RH  100%=      5-min Rain = 0
KRRS 070950Z 00021G29KT 03/02 A3026 RMK A01 T00250022  RH  100%=      5-min Rain = 0
KRRS 070955Z 00019G29KT 03/02 A3027 RMK A01 T00250023  RH  100%=      5-min Rain = 0
KRRS 071000Z 36024G33KT 02/02 A3026 RMK A01 T00230021  RH  100%=      5-min Rain = 0
KRRS 071005Z 00024G32KT 02/02 A3026 RMK A01 T00210019  RH  100%=      5-min Rain = 0.01
KRRS 071010Z 01024G33KT 02/02 A3026 RMK A01 T00200018  RH  100%=      5-min Rain = 0
KRRS 071015Z 01023G32KT 02/02 A3026 RMK A01 T00200018  RH  100%=      5-min Rain = 0
KRRS 071020Z 01025G33KT 02/02 A3026 RMK A01 T00190017  RH  100%=      5-min Rain = 0.01
KRRS 071025Z 01023G35KT 02/02 A3026 RMK A01 T00180016  RH  100%=      5-min Rain = 0
KRRS 071030Z 01017G26KT 02/02 A3028 RMK A01 T00180016  RH  100%=      5-min Rain = 0
KRRS 071035Z 00018G27KT 02/02 A3028 RMK A01 T00180016  RH  100%=      5-min Rain = 0
KRRS 071040Z 00019G26KT 02/01 A3028 RMK A01 T00160014  RH  100%=      5-min Rain = 0
KRRS 071045Z 36023G33KT 01/01 A3028 RMK A01 T00140012  RH  100%=      5-min Rain = 0
KRRS 071050Z 00020G27KT 01/01 A3028 RMK A01 T00140012  RH  100%=      5-min Rain = 0
KRRS 071055Z 00018G25KT 01/01 A3029 RMK A01 T00140012  RH  100%=      5-min Rain = 0
KRRS 071100Z 01018G28KT 01/01 A303 RMK A01 T00130011  RH  100%=      5-min Rain = 0.01
KRRS 071105Z 00021G27KT 01/01 A303 RMK A01 T00120010  RH  100%=      5-min Rain = 0
KRRS 071110Z 01021G29KT 01/01 A303 RMK A01 T00120010  RH  100%=      5-min Rain = 0
KRRS 071115Z 01020G30KT 01/01 A3031 RMK A01 T00110009  RH  100%=      5-min Rain = 0
KRRS 071120Z 01019G26KT 01/01 A3031 RMK A01 T00100008  RH  100%=      5-min Rain = 0
KRRS 071125Z 01020G30KT 01/01 A3031 RMK A01 T00090007  RH  100%=      5-min Rain = 0.01
KRRS 071130Z 01019G27KT 01/01 A3032 RMK A01 T00090007  RH  100%=      5-min Rain = 0
KRRS 071135Z 00019G30KT 01/01 A3032 RMK A01 T00090007  RH  100%=      5-min Rain = 0.01
KRRS 071140Z 01017G27KT 01/01 A3032 RMK A01 T00090007  RH  100%=      5-min Rain = 0
KRRS 071145Z 01020G27KT 01/01 A3032 RMK A01 T00080007  RH  100%=      5-min Rain = 0.01
KRRS 071150Z 01019G28KT 01/01 A3032 RMK A01 T00080006  RH  100%=      5-min Rain = 0.01
KRRS 071155Z 01020G29KT 01/01 A3032 RMK A01 T00070005  RH  100%=      5-min Rain = 0
KRRS 071200Z 01020G26KT 01/01 A3032 RMK A01 T00060005  RH  100%=      5-min Rain = 0.01
KRRS 071205Z 00020G27KT 01/00 A3033 RMK A01 T00060004  RH  100%=      5-min Rain = 0
KRRS 071210Z 00022G30KT 01/00 A3034 RMK A01 T00050003  RH  100%=      5-min Rain = 0
KRRS 071215Z 00018G25KT 01/00 A3035 RMK A01 T00050003  RH  100%=      5-min Rain = 0.01
KRRS 071220Z 00018G27KT 01/00 A3035 RMK A01 T00050003  RH  100%=      5-min Rain = 0
KRRS 071225Z 00020G27KT 00/00 A3035 RMK A01 T00040002  RH  100%=      5-min Rain = 0
KRRS 071230Z 00018G24KT 00/00 A3036 RMK A01 T00040002  RH  100%=      5-min Rain = 0.01
KRRS 071235Z 00016G23KT 00/00 A3037 RMK A01 T00040002  RH  100%=      5-min Rain = 0
KRRS 071240Z 00018G26KT 00/00 A3037 RMK A01 T00040002  RH  100%=      5-min Rain = 0.01
KRRS 071245Z 01016G25KT 00/00 A3036 RMK A01 T00040002  RH  100%=      5-min Rain = 0.01
KRRS 071250Z 00017G26KT 00/00 A3036 RMK A01 T00040002  RH  100%=      5-min Rain = 0.01
KRRS 071255Z 01016G23KT 00/00 A3037 RMK A01 T00040002  RH  100%=      5-min Rain = 0
KRRS 071300Z 01017G24KT 00/00 A3037 RMK A01 T00030002  RH  100%=      5-min Rain = 0.01
KRRS 071305Z 01018G27KT 00/00 A3037 RMK A01 T00030002  RH  100%=      5-min Rain = 0
KRRS 071310Z 01019G25KT 00/00 A3037 RMK A01 T00030002  RH  100%=      5-min Rain = 0.01
KRRS 071315Z 01016G25KT 00/00 A3037 RMK A01 T00030002  RH  100%=      5-min Rain = 0
KRRS 071320Z 01019G29KT 00/00 A3037 RMK A01 T00020001  RH  100%=      5-min Rain = 0
KRRS 071325Z 01020G27KT 00/M00 A3037 RMK A01 T00011001  RH  100%=      5-min Rain = 0
KRRS 071330Z 01019G27KT 00/M00 A3037 RMK A01 T00011001  RH  100%=      5-min Rain = 0
KRRS 071335Z 01019G27KT 00/M00 A3037 RMK A01 T00011001  RH  100%=      5-min Rain = 0
KRRS 071340Z 00019G25KT 00/M00 A3038 RMK A01 T00011001  RH  100%=      5-min Rain = 0
KRRS 071345Z 01020G28KT 00/00 A3038 RMK A01 T000000-1  RH  100%=      5-min Rain = 0
KRRS 071350Z 01021G27KT M00/M00 A3038 RMK A01 T10011002  RH  100%=      5-min Rain = 0
KRRS 071355Z 01020G29KT M00/M00 A3038 RMK A01 T10011003  RH  100%=      5-min Rain = 0.01
KRRS 071400Z 01018G26KT M00/M00 A3039 RMK A01 T10011003  RH  100%=      5-min Rain = 0
KRRS 071405Z 01017G24KT M00/M00 A3039 RMK A01 T10011003  RH  100%=      5-min Rain = 0
KRRS 071410Z 00016G23KT M00/M00 A3041 RMK A01 T10011003  RH  100%=      5-min Rain = 0
KRRS 071415Z 01018G24KT M00/M00 A3041 RMK A01 T10011003  RH  100%=      5-min Rain = 0
KRRS 071420Z 01019G28KT M00/M00 A304 RMK A01 T10011003  RH  100%=      5-min Rain = 0
KRRS 071425Z 01017G23KT M00/M00 A3041 RMK A01 T10011003  RH  100%=      5-min Rain = 0
KRRS 071430Z 00016G22KT 00/00 A3042 RMK A01 T00-000-2  RH  100%=      5-min Rain = 0
KRRS 071435Z 00016G22KT 00/00 A3042 RMK A01 T00-000-2  RH  100%=      5-min Rain = 0
KRRS 071440Z 01018G26KT M00/M00 A3041 RMK A01 T10011003  RH  100%=      5-min Rain = 0
KRRS 071445Z 01020G28KT M00/M00 A3042 RMK A01 T10021003  RH  100%=      5-min Rain = 0
KRRS 071450Z 01018G25KT M00/M00 A3043 RMK A01 T10011003  RH  100%=      5-min Rain = 0
KRRS 071455Z 01019G27KT M00/M00 A3043 RMK A01 T10021003  RH  100%=      5-min Rain = 0
KRRS 071500Z 01018G27KT M00/M00 A3044 RMK A01 T10021003  RH  100%=      5-min Rain = 0
KRRS 071505Z 01015G23KT M00/M00 A3044 RMK A01 T10011003  RH  100%=      5-min Rain = 0
KRRS 071510Z 01016G25KT 00/00 A3044 RMK A01 T00-000-2  RH  100%=      5-min Rain = 0
KRRS 071515Z 01015G21KT 00/00 A3044 RMK A01 T00-000-2  RH  100%=      5-min Rain = 0
KRRS 071520Z 00015G22KT 00/00 A3045 RMK A01 T00-000-2  RH  100%=      5-min Rain = 0
KRRS 071525Z 01018G24KT M00/M00 A3044 RMK A01 T10011003  RH  100%=      5-min Rain = 0
KRRS 071530Z 01018G25KT M00/M00 A3043 RMK A01 T10011003  RH  100%=      5-min Rain = 0
KRRS 071535Z 01017G23KT M00/M00 A3043 RMK A01 T10011002  RH  100%=      5-min Rain = 0
KRRS 071540Z 01016G21KT M00/M00 A3044 RMK A01 T10011002  RH  100%=      5-min Rain = 0
KRRS 071545Z 01016G23KT M00/M00 A3044 RMK A01 T10011002  RH  100%=      5-min Rain = 0
KRRS 071550Z 00013G19KT 00/00 A3044 RMK A01 T00-000-2  RH  100%=      5-min Rain = 0
KRRS 071555Z 00015G21KT 00/00 A3044 RMK A01 T00-000-2  RH  100%=      5-min Rain = 0
KRRS 071600Z 00014G21KT 00/00 A3046 RMK A01 T00-000-2  RH  100%=      5-min Rain = 0
KRRS 071605Z 01012KT 00/00 A3046 RMK A01 T00-000-2  RH  100%=      5-min Rain = 0
KRRS 071610Z 01014G19KT 00/00 A3046 RMK A01 T00-000-2  RH  100%=      5-min Rain = 0
KRRS 071615Z 01014G21KT 00/00 A3046 RMK A01 T00-000-2  RH  100%=      5-min Rain = 0
KRRS 071620Z 00014G22KT 00/00 A3047 RMK A01 T00-000-2  RH  100%=      5-min Rain = 0
KRRS 071625Z 00015G20KT M00/M00 A3046 RMK A01 T10011002  RH  100%=      5-min Rain = 0
KRRS 071630Z 01014G22KT 00/00 A3046 RMK A01 T000000-1  RH  100%=      5-min Rain = 0
KRRS 071635Z 01016G22KT 00/00 A3046 RMK A01 T000000-2  RH  100%=      5-min Rain = 0
KRRS 071640Z 01015G23KT 00/00 A3046 RMK A01 T000000-1  RH  100%=      5-min Rain = 0
KRRS 071645Z 01018G24KT 00/00 A3046 RMK A01 T00-000-2  RH  100%=      5-min Rain = 0
KRRS 071650Z 01016G23KT 00/M00 A3047 RMK A01 T00011001  RH  100%=      5-min Rain = 0
KRRS 071655Z 01015KT 00/00 A3047 RMK A01 T000100-0  RH  100%=      5-min Rain = 0
KRRS 071700Z 01017G24KT 00/00 A3047 RMK A01 T00020000  RH  100%=      5-min Rain = 0
KRRS 071705Z 01017G24KT 00/00 A3047 RMK A01 T00-000-2  RH  100%=      5-min Rain = 0
KRRS 071710Z 01014G20KT 00/00 A3047 RMK A01 T00-000-2  RH  100%=      5-min Rain = 0
KRRS 071715Z 00014G20KT 00/00 A3048 RMK A01 T000000-1  RH  100%=      5-min Rain = 0
KRRS 071720Z 36013G19KT 00/M00 A3048 RMK A01 T00011001  RH  100%=      5-min Rain = 0
KRRS 071725Z 00015G22KT M00/M00 A3048 RMK A01 T10011002  RH  100%=      5-min Rain = 0
KRRS 071730Z 36016G22KT M00/M00 A3048 RMK A01 T10021004  RH  100%=      5-min Rain = 0
KRRS 071735Z 01017G26KT M00/M01 A3048 RMK A01 T10031005  RH  100%=      5-min Rain = 0
KRRS 071740Z 01016G22KT M00/M01 A3048 RMK A01 T10031005  RH  100%=      5-min Rain = 0
KRRS 071745Z 02018G24KT M00/M01 A3047 RMK A01 T10041005  RH  100%=      5-min Rain = 0
KRRS 071750Z 01015G21KT M00/M01 A3047 RMK A01 T10031005  RH  100%=      5-min Rain = 0
KRRS 071755Z 02014G20KT M00/M00 A3047 RMK A01 T10031004  RH  100%=      5-min Rain = 0
KRRS 071800Z 02015KT M00/M00 A3046 RMK A01 T10031004  RH  100%=      5-min Rain = 0
KRRS 071805Z 02014G19KT M00/M00 A3046 RMK A01 T10021004  RH  100%=      5-min Rain = 0
KRRS 071810Z 01013KT M00/M00 A3046 RMK A01 T10021003  RH  100%=      5-min Rain = 0
KRRS 071815Z 00014KT M00/M00 A3046 RMK A01 T10021003  RH  100%=      5-min Rain = 0
KRRS 071820Z 00014G21KT M00/M01 A3045 RMK A01 T10031005  RH  100%=      5-min Rain = 0
KRRS 071825Z 00012G17KT M01/M01 A3046 RMK A01 T10051006  RH  100%=      5-min Rain = 0
KRRS 071830Z 00012KT M01/M01 A3046 RMK A01 T10051006  RH  100%=      5-min Rain = 0
KRRS 071835Z 01011G17KT M01/M01 A3045 RMK A01 T10051007  RH  100%=      5-min Rain = 0
KRRS 071840Z 01012KT M01/M01 A3045 RMK A01 T10051006  RH  100%=      5-min Rain = 0
KRRS 071845Z 01011KT M01/M01 A3045 RMK A01 T10051006  RH  100%=      5-min Rain = 0
KRRS 071850Z 01012KT M01/M01 A3044 RMK A01 T10051006  RH  100%=      5-min Rain = 0
KRRS 071855Z 01010G15KT M00/M01 A3044 RMK A01 T10041006  RH  100%=      5-min Rain = 0
KRRS 071900Z 01009KT M00/M01 A3044 RMK A01 T10031005  RH  100%=      5-min Rain = 0
KRRS 071905Z 02009KT M00/M01 A3044 RMK A01 T10031005  RH  100%=      5-min Rain = 0
KRRS 071910Z 01008KT M00/M00 A3044 RMK A01 T10031004  RH  100%=      5-min Rain = 0
KRRS 071915Z 01009KT M00/M00 A3044 RMK A01 T10031004  RH  100%=      5-min Rain = 0
KRRS 071920Z 00009KT M00/M00 A3043 RMK A01 T10031004  RH  100%=      5-min Rain = 0
KRRS 071925Z 01010KT M00/M01 A3044 RMK A01 T10031005  RH  100%=      5-min Rain = 0
KRRS 071930Z 01009KT M00/M01 A3042 RMK A01 T10041005  RH  100%=      5-min Rain = 0
KRRS 071935Z 01009KT M00/M01 A3042 RMK A01 T10031005  RH  100%=      5-min Rain = 0
KRRS 071940Z 00009KT M00/M01 A3042 RMK A01 T10041005  RH  100%=      5-min Rain = 0
KRRS 071945Z 01009KT M00/M01 A3041 RMK A01 T10041005  RH  100%=      5-min Rain = 0
KRRS 071950Z 01008G13KT M00/M00 A3042 RMK A01 T10031004  RH  100%=      5-min Rain = 0
KRRS 071955Z 01008KT M00/M01 A3042 RMK A01 T10031005  RH  100%=      5-min Rain = 0
KRRS 072000Z 01007G12KT M00/M00 A3042 RMK A01 T10031004  RH  100%=      5-min Rain = 0
KRRS 072005Z 01007G12KT M00/M00 A3041 RMK A01 T10021004  RH  100%=      5-min Rain = 0
KRRS 072010Z 01008KT M00/M01 A3042 RMK A01 T10031005  RH  100%=      5-min Rain = 0
KRRS 072015Z 01008KT M00/M01 A3042 RMK A01 T10041005  RH  100%=      5-min Rain = 0
KRRS 072020Z 01007KT M00/M01 A3042 RMK A01 T10041006  RH  100%=      5-min Rain = 0
KRRS 072025Z 00007KT M00/M01 A3042 RMK A01 T10041006  RH  100%=      5-min Rain = 0
KRRS 072030Z 00006KT M01/M01 A3042 RMK A01 T10051006  RH  100%=      5-min Rain = 0
KRRS 072035Z 36007KT M01/M01 A3043 RMK A01 T10051007  RH  100%=      5-min Rain = 0
KRRS 072040Z 36007KT M01/M01 A3043 RMK A01 T10061007  RH  100%=      5-min Rain = 0
KRRS 072045Z 00006KT M01/M01 A3043 RMK A01 T10061007  RH  100%=      5-min Rain = 0
KRRS 072050Z 35005KT M01/M01 A3043 RMK A01 T10051007  RH  100%=      5-min Rain = 0
KRRS 072055Z 00006KT M00/M01 A3042 RMK A01 T10041006  RH  100%=      5-min Rain = 0
KRRS 072100Z 00006KT M01/M01 A3043 RMK A01 T10051006  RH  100%=      5-min Rain = 0
KRRS 072105Z 00006KT M00/M01 A3043 RMK A01 T10041006  RH  100%=      5-min Rain = 0
KRRS 072110Z 00006KT M01/M01 A3042 RMK A01 T10051006  RH  100%=      5-min Rain = 0
KRRS 072115Z 36006KT M00/M01 A3042 RMK A01 T10041005  RH  100%=      5-min Rain = 0
KRRS 072120Z 36006KT M00/M01 A3042 RMK A01 T10031005  RH  100%=      5-min Rain = 0
KRRS 072125Z 35007KT M00/M01 A3042 RMK A01 T10031005  RH  100%=      5-min Rain = 0
KRRS 072130Z 36006KT M00/M01 A3042 RMK A01 T10031005  RH  100%=      5-min Rain = 0
KRRS 072135Z 36006KT M00/M00 A3042 RMK A01 T10021004  RH  100%=      5-min Rain = 0
KRRS 072140Z 36006KT M00/M00 A3042 RMK A01 T10021003  RH  100%=      5-min Rain = 0
KRRS 072145Z 36006KT M00/M00 A3042 RMK A01 T10021003  RH  100%=      5-min Rain = 0
KRRS 072150Z 00006KT M00/M00 A3041 RMK A01 T10021003  RH  100%=      5-min Rain = 0
KRRS 072155Z 36006KT M00/M00 A3042 RMK A01 T10021003  RH  100%=      5-min Rain = 0
KRRS 072200Z 36006KT M00/M00 A3042 RMK A01 T10021003  RH  100%=      5-min Rain = 0
KRRS 072205Z 36005KT M00/M00 A3042 RMK A01 T10021003  RH  100%=      5-min Rain = 0
KRRS 072210Z 36005KT M00/M00 A3042 RMK A01 T10011003  RH  100%=      5-min Rain = 0
KRRS 072215Z 00006KT M00/M00 A3042 RMK A01 T10031004  RH  100%=      5-min Rain = 0
KRRS 072220Z 00005KT M00/M00 A3042 RMK A01 T10021004  RH  100%=      5-min Rain = 0
KRRS 072225Z 36006KT M00/M00 A3043 RMK A01 T10031004  RH  100%=      5-min Rain = 0
KRRS 072230Z 36006KT M00/M00 A3043 RMK A01 T10031004  RH  100%=      5-min Rain = 0
KRRS 072235Z 00006KT M00/M00 A3043 RMK A01 T10021004  RH  100%=      5-min Rain = 0
KRRS 072240Z 36006KT M00/M00 A3043 RMK A01 T10021003  RH  100%=      5-min Rain = 0
KRRS 072245Z 36006KT M00/M00 A3043 RMK A01 T10011003  RH  100%=      5-min Rain = 0
KRRS 072250Z 00006KT M00/M00 A3042 RMK A01 T10011002  RH  100%=      5-min Rain = 0
KRRS 072255Z 36005KT 00/00 A3043 RMK A01 T00-000-2  RH  100%=      5-min Rain = 0
KRRS 072300Z 00006KT 00/00 A3043 RMK A01 T00-000-2  RH  100%=      5-min Rain = 0
KRRS 072305Z 00006KT 00/00 A3043 RMK A01 T000000-1  RH  100%=      5-min Rain = 0
KRRS 072310Z 00006KT 00/M00 A3044 RMK A01 T00011001  RH  100%=      5-min Rain = 0
KRRS 072315Z 36005KT 00/00 A3044 RMK A01 T000100-0  RH  100%=      5-min Rain = 0
KRRS 072320Z 00005KT 00/00 A3044 RMK A01 T000200-0  RH  100%=      5-min Rain = 0
KRRS 072325Z 00005KT 00/00 A3043 RMK A01 T00020000  RH  100%=      5-min Rain = 0
KRRS 072330Z 36006KT 00/00 A3043 RMK A01 T00020000  RH  100%=      5-min Rain = 0
KRRS 072335Z 00005KT 00/00 A3044 RMK A01 T00020001  RH  100%=      5-min Rain = 0
KRRS 072340Z 00005KT 00/00 A3043 RMK A01 T00020001  RH  100%=      5-min Rain = 0
KRRS 072345Z 00005KT 00/00 A3043 RMK A01 T00020001  RH  100%=      5-min Rain = 0
KRRS 072350Z 00005KT 00/00 A3044 RMK A01 T00030001  RH  100%=      5-min Rain = 0
KRRS 072355Z 36005KT 00/00 A3044 RMK A01 T00020001  RH  100%=      5-min Rain = 0
KRRS 080000Z 00006KT 00/00 A3044 RMK A01 T00030001  RH  100%=      5-min Rain = 0
KRRS 080005Z 00005KT 00/00 A3044 RMK A01 T00030001  RH  100%=      5-min Rain = 0
KRRS 080010Z 00006KT 00/00 A3043 RMK A01 T00030001  RH  100%=      5-min Rain = 0
KRRS 080015Z 01006KT 00/00 A3043 RMK A01 T00030002  RH  100%=      5-min Rain = 0
KRRS 080020Z 00006KT 00/00 A3044 RMK A01 T00030002  RH  100%=      5-min Rain = 0
KRRS 080025Z 00005KT 00/00 A3044 RMK A01 T00040002  RH  100%=      5-min Rain = 0
KRRS 080030Z 00006KT 00/00 A3044 RMK A01 T00040002  RH  100%=      5-min Rain = 0
KRRS 080035Z 36009G14KT 00/00 A3045 RMK A01 T00040002  RH  100%=      5-min Rain = 0
KRRS 080040Z 00012G17KT 00/00 A3045 RMK A01 T00040003  RH  100%=      5-min Rain = 0
KRRS 080045Z 36012KT 01/00 A3045 RMK A01 T00050003  RH  100%=      5-min Rain = 0
KRRS 080050Z 00010G15KT 01/00 A3045 RMK A01 T00050003  RH  100%=      5-min Rain = 0
KRRS 080055Z 00011G16KT 01/00 A3045 RMK A01 T00050003  RH  100%=      5-min Rain = 0
KRRS 080100Z 00011KT 01/00 A3046 RMK A01 T00050003  RH  100%=      5-min Rain = 0
KRRS 080105Z 01009G14KT 01/00 A3046 RMK A01 T00050004  RH  100%=      5-min Rain = 0
KRRS 080110Z 01008G13KT 01/00 A3046 RMK A01 T00060004  RH  100%=      5-min Rain = 0
KRRS 080115Z 00009KT 01/00 A3046 RMK A01 T00060004  RH  100%=      5-min Rain = 0
KRRS 080120Z 01011KT 01/00 A3046 RMK A01 T00060004  RH  100%=      5-min Rain = 0
KRRS 080125Z 01010G15KT 01/00 A3046 RMK A01 T00060004  RH  100%=      5-min Rain = 0
KRRS 080130Z 01009KT 01/00 A3046 RMK A01 T00060004  RH  100%=      5-min Rain = 0
KRRS 080135Z 00009KT 01/01 A3046 RMK A01 T00060005  RH  100%=      5-min Rain = 0
KRRS 080140Z 00008G13KT 01/00 A3046 RMK A01 T00060004  RH  100%=      5-min Rain = 0
KRRS 080145Z 00009KT 01/00 A3046 RMK A01 T00060004  RH  100%=      5-min Rain = 0
KRRS 080150Z 35009KT 01/01 A3046 RMK A01 T00070005  RH  100%=      5-min Rain = 0
KRRS 080155Z 35008KT 01/00 A3046 RMK A01 T00060004  RH  099%=      5-min Rain = 0
KRRS 080200Z 35009KT 01/00 A3046 RMK A01 T00060003  RH  099%=      5-min Rain = 0
KRRS 080205Z 36010KT 01/00 A3046 RMK A01 T00060003  RH  099%=      5-min Rain = 0
KRRS 080210Z 00009G14KT 01/00 A3046 RMK A01 T00060004  RH  099%=      5-min Rain = 0
KRRS 080215Z 01008KT 01/01 A3046 RMK A01 T00070005  RH  100%=      5-min Rain = 0
KRRS 080220Z 00009KT 01/01 A3046 RMK A01 T00070005  RH  100%=      5-min Rain = 0
KRRS 080225Z 36008KT 01/01 A3046 RMK A01 T00080006  RH  100%=      5-min Rain = 0
KRRS 080230Z 00009KT 01/00 A3046 RMK A01 T00070004  RH  099%=      5-min Rain = 0
KRRS 080235Z 01010G16KT 01/00 A3046 RMK A01 T00070002  RH  098%=      5-min Rain = 0
KRRS 080240Z 00011KT 01/M00 A3046 RMK A01 T00061004  RH  094%=      5-min Rain = 0
KRRS 080245Z 01009G14KT 01/M00 A3046 RMK A01 T00061004  RH  094%=      5-min Rain = 0
KRRS 080250Z 01010KT 01/M00 A3046 RMK A01 T00061004  RH  094%=      5-min Rain = 0
KRRS 080255Z 01010KT 01/M01 A3046 RMK A01 T00061005  RH  094%=      5-min Rain = 0
KRRS 080300Z 01010KT 01/M01 A3046 RMK A01 T00061005  RH  093%=      5-min Rain = 0
KRRS 080305Z 01010KT 01/M01 A3046 RMK A01 T00061005  RH  093%=      5-min Rain = 0
KRRS 080310Z 01009KT 01/M00 A3046 RMK A01 T00061004  RH  094%=      5-min Rain = 0
KRRS 080315Z 00009G14KT 01/M01 A3046 RMK A01 T00071005  RH  093%=      5-min Rain = 0
KRRS 080320Z 01008KT 01/M01 A3046 RMK A01 T00071005  RH  093%=      5-min Rain = 0
KRRS 080325Z 01008G13KT 01/M00 A3046 RMK A01 T00071004  RH  093%=      5-min Rain = 0
KRRS 080330Z 01008KT 01/M00 A3046 RMK A01 T00081004  RH  093%=      5-min Rain = 0
KRRS 080335Z 01008KT 01/M00 A3046 RMK A01 T00081003  RH  093%=      5-min Rain = 0
KRRS 080340Z 01009KT 01/M00 A3046 RMK A01 T00081002  RH  094%=      5-min Rain = 0
KRRS 080345Z 36007KT 01/M00 A3047 RMK A01 T00091001  RH  094%=      5-min Rain = 0
KRRS 080350Z 00007KT 01/00 A3047 RMK A01 T00090000  RH  095%=      5-min Rain = 0
KRRS 080355Z 01008KT 01/00 A3047 RMK A01 T00090000  RH  095%=      5-min Rain = 0
KRRS 080400Z 01008KT 01/00 A3047 RMK A01 T000900-0  RH  094%=      5-min Rain = 0
KRRS 080405Z 00007KT 01/00 A3047 RMK A01 T00100001  RH  095%=      5-min Rain = 0
KRRS 080410Z 36007KT 01/00 A3047 RMK A01 T00100001  RH  095%=      5-min Rain = 0
KRRS 080415Z 36007KT 01/00 A3047 RMK A01 T00100001  RH  095%=      5-min Rain = 0
KRRS 080420Z 36007KT 01/00 A3047 RMK A01 T00100001  RH  095%=      5-min Rain = 0
KRRS 080425Z 36008KT 01/00 A3047 RMK A01 T00100000  RH  094%=      5-min Rain = 0
KRRS 080430Z 36007KT 01/00 A3047 RMK A01 T00110000  RH  094%=      5-min Rain = 0
KRRS 080435Z 00007KT 01/00 A3047 RMK A01 T00110001  RH  094%=      5-min Rain = 0
KRRS 080440Z 36005KT 01/00 A3048 RMK A01 T00110002  RH  095%=      5-min Rain = 0
KRRS 080445Z 35006KT 01/00 A3048 RMK A01 T00120002  RH  094%=      5-min Rain = 0
KRRS 080450Z 35007KT 01/00 A3048 RMK A01 T00120001  RH  094%=      5-min Rain = 0
KRRS 080455Z 35006KT 01/00 A3048 RMK A01 T00120001  RH  093%=      5-min Rain = 0
KRRS 080500Z 35006KT 01/00 A3048 RMK A01 T00120001  RH  093%=      5-min Rain = 0
KRRS 080505Z 35006KT 01/00 A3048 RMK A01 T00120000  RH  093%=      5-min Rain = 0
KRRS 080510Z 35005KT 01/00 A3048 RMK A01 T001200-0  RH  092%=      5-min Rain = 0
KRRS 080515Z 35005KT 01/00 A3048 RMK A01 T001200-0  RH  092%=      5-min Rain = 0
KRRS 080520Z 35006KT 01/00 A3048 RMK A01 T00130001  RH  093%=      5-min Rain = 0
KRRS 080525Z 35006KT 01/00 A3047 RMK A01 T00130000  RH  092%=      5-min Rain = 0
KRRS 080530Z 35007KT 01/M00 A3047 RMK A01 T00131002  RH  091%=      5-min Rain = 0
KRRS 080535Z 36006KT 01/M00 A3047 RMK A01 T00121002  RH  091%=      5-min Rain = 0
KRRS 080540Z 36006KT 01/M00 A3047 RMK A01 T00121003  RH  091%=      5-min Rain = 0
KRRS 080545Z 00006KT 01/M00 A3046 RMK A01 T00121003  RH  091%=      5-min Rain = 0
KRRS 080550Z 01006KT 01/M00 A3046 RMK A01 T00131003  RH  090%=      5-min Rain = 0
KRRS 080555Z 00007KT 01/M00 A3046 RMK A01 T00121004  RH  089%=      5-min Rain = 0

Page generated in 0.009 seconds.